createdAt,value
2023-10-02T00:02:02.063Z,10.73
2023-10-02T00:04:35.882Z,11.27
2023-10-02T00:07:09.774Z,11.67
2023-10-02T00:09:38.011Z,12.10
2023-10-02T00:12:12.718Z,13.10
2023-10-02T00:14:41.891Z,13.80
2023-10-02T00:17:15.553Z,10.37
2023-10-02T00:19:45.306Z,12.47
2023-10-02T00:22:34.997Z,13.13
2023-10-02T00:25:03.500Z,13.33
2023-10-02T00:27:31.335Z,13.93
2023-10-02T00:30:00.326Z,13.80
2023-10-02T00:32:30.757Z,13.40
2023-10-02T00:35:00.165Z,14.33
2023-10-02T00:37:45.007Z,11.87
2023-10-02T00:40:15.950Z,10.47
2023-10-02T00:42:46.695Z,13.67
2023-10-02T00:45:14.644Z,12.47
2023-10-02T00:47:44.199Z,12.10
2023-10-02T00:50:14.414Z,11.73
2023-10-02T00:52:43.928Z,11.23
2023-10-02T00:55:13.770Z,11.13
2023-10-02T00:57:42.319Z,14.20
2023-10-02T01:00:18.880Z,13.60
2023-10-02T01:02:51.513Z,13.50
2023-10-02T01:05:23.321Z,14.73
2023-10-02T01:07:55.904Z,13.67
2023-10-02T01:10:24.515Z,11.47
2023-10-02T01:12:54.396Z,12.20
2023-10-02T01:15:48.714Z,14.60
2023-10-02T01:18:24.066Z,14.13
2023-10-02T01:20:54.783Z,12.80
2023-10-02T01:23:26.420Z,15.73
2023-10-02T01:25:58.604Z,13.87
2023-10-02T01:28:27.687Z,13.00
2023-10-02T01:30:56.483Z,12.23
2023-10-02T01:33:27.671Z,14.00
2023-10-02T01:35:58.036Z,13.43
2023-10-02T01:38:30.574Z,12.73
2023-10-02T01:41:07.803Z,13.37
2023-10-02T01:43:40.426Z,14.97
2023-10-02T01:46:09.022Z,11.43
2023-10-02T01:48:41.606Z,13.47
2023-10-02T01:51:33.383Z,11.50
2023-10-02T01:54:04.387Z,12.03
2023-10-02T01:56:35.943Z,12.67
2023-10-02T01:59:11.366Z,12.60
2023-10-02T02:01:53.198Z,14.20
2023-10-02T02:04:21.993Z,15.20
2023-10-02T02:06:56.327Z,12.57
2023-10-02T02:09:25.359Z,14.30
2023-10-02T02:12:15.601Z,13.67
2023-10-02T02:14:51.603Z,12.30
2023-10-02T02:17:21.608Z,11.47
2023-10-02T02:19:51.215Z,14.47
2023-10-02T02:22:19.336Z,10.97
2023-10-02T02:24:47.579Z,14.47
2023-10-02T02:27:18.614Z,14.00
2023-10-02T02:29:47.340Z,12.40
2023-10-02T02:32:20.698Z,15.17
2023-10-02T02:34:49.356Z,14.87
2023-10-02T02:37:18.012Z,12.97
2023-10-02T02:39:46.686Z,11.87
2023-10-02T02:42:23.558Z,13.93
2023-10-02T02:44:52.099Z,12.50
2023-10-02T02:47:22.985Z,14.47
2023-10-02T02:49:52.582Z,12.43
2023-10-02T02:52:22.600Z,12.03
2023-10-02T02:54:59.938Z,14.00
2023-10-02T02:57:29.593Z,10.57
2023-10-02T03:00:19.382Z,14.47
2023-10-02T03:02:47.744Z,12.83
2023-10-02T03:05:17.341Z,12.90
2023-10-02T03:07:45.720Z,13.00
2023-10-02T03:10:13.890Z,13.70
2023-10-02T03:12:47.194Z,12.63
2023-10-02T03:15:16.173Z,13.67
2023-10-02T03:17:44.130Z,14.07
2023-10-02T03:20:23.809Z,11.33
2023-10-02T03:22:55.716Z,12.37
2023-10-02T03:25:29.284Z,13.50
2023-10-02T03:27:58.794Z,13.47
2023-10-02T03:30:40.278Z,12.90
2023-10-02T03:33:19.960Z,11.13
2023-10-02T03:35:59.745Z,12.80
2023-10-02T03:38:27.865Z,14.77
2023-10-02T03:40:56.889Z,10.63
2023-10-02T03:43:36.928Z,14.23
2023-10-02T03:46:07.886Z,12.77
2023-10-02T03:48:36.392Z,11.27
2023-10-02T03:51:05.656Z,12.57
2023-10-02T03:53:33.770Z,14.17
2023-10-02T03:56:22.390Z,13.50
2023-10-02T03:58:52.001Z,13.60
2023-10-02T04:01:28.886Z,15.73
2023-10-02T04:04:11.620Z,16.33
2023-10-02T04:06:39.434Z,13.47
2023-10-02T04:09:19.825Z,13.73
2023-10-02T04:11:47.590Z,12.87
2023-10-02T04:14:26.551Z,9.80
2023-10-02T04:16:53.760Z,12.10
2023-10-02T04:19:24.513Z,15.20
2023-10-02T04:21:52.842Z,12.70
2023-10-02T04:24:24.962Z,13.10
2023-10-02T04:26:55.421Z,13.17
2023-10-02T04:29:31.129Z,15.10
2023-10-02T04:32:15.458Z,13.93
2023-10-02T04:34:51.711Z,15.27
2023-10-02T04:37:21.919Z,13.27
2023-10-02T04:40:14.894Z,12.13
2023-10-02T04:43:10.586Z,14.57
2023-10-02T04:45:39.942Z,19.53
2023-10-02T04:48:11.493Z,14.23
2023-10-02T04:50:46.515Z,11.60
2023-10-02T04:53:32.003Z,12.30
2023-10-02T04:56:15.223Z,12.40
2023-10-02T04:58:49.233Z,13.90
2023-10-02T05:01:36.200Z,12.70
2023-10-02T05:04:04.774Z,15.90
2023-10-02T05:06:45.646Z,13.73
2023-10-02T05:09:21.930Z,11.90
2023-10-02T05:11:57.323Z,14.00
2023-10-02T05:14:27.952Z,13.67
2023-10-02T05:17:17.854Z,12.30
2023-10-02T05:19:58.166Z,15.70
2023-10-02T05:22:28.919Z,14.37
2023-10-02T05:25:05.529Z,13.27
2023-10-02T05:27:33.475Z,12.67
2023-10-02T05:30:03.161Z,13.83
2023-10-02T05:32:36.356Z,18.87
2023-10-02T05:35:19.640Z,13.43
2023-10-02T05:37:52.845Z,15.97
2023-10-02T05:40:45.871Z,12.43
2023-10-02T05:43:18.990Z,18.80
2023-10-02T05:45:54.012Z,13.63
2023-10-02T05:50:58.716Z,16.07
2023-10-02T05:53:28.212Z,20.37
2023-10-02T05:56:13.691Z,14.03
2023-10-02T05:58:44.227Z,15.07
2023-10-02T06:01:25.193Z,14.27
2023-10-02T06:03:59.490Z,18.83
2023-10-02T06:06:30.095Z,12.73
2023-10-02T06:09:02.371Z,14.87
2023-10-02T06:11:33.466Z,16.40
2023-10-02T06:14:10.708Z,16.17
2023-10-02T06:16:40.660Z,16.77
2023-10-02T06:19:14.193Z,15.67
2023-10-02T06:22:05.595Z,15.37
2023-10-02T06:24:33.722Z,16.53
2023-10-02T06:27:05.906Z,13.83
2023-10-02T06:29:36.496Z,17.87
2023-10-02T06:32:06.611Z,15.33
2023-10-02T06:34:41.693Z,13.33
2023-10-02T06:37:13.460Z,14.17
2023-10-02T06:39:42.739Z,12.90
2023-10-02T06:42:10.902Z,16.13
2023-10-02T06:44:44.063Z,20.00
2023-10-02T06:47:14.632Z,15.07
2023-10-02T06:49:45.190Z,15.23
2023-10-02T06:52:17.101Z,17.20
2023-10-02T06:54:45.803Z,17.63
2023-10-02T06:57:14.884Z,16.07
2023-10-02T06:59:52.417Z,16.97
2023-10-02T07:02:26.515Z,17.43
2023-10-02T07:04:56.620Z,18.73
2023-10-02T07:07:31.352Z,17.63
2023-10-02T07:10:08.683Z,16.15
2023-10-02T07:12:40.894Z,14.82
2023-10-02T07:15:21.702Z,16.45
2023-10-02T07:18:03.350Z,16.45
2023-10-02T07:20:44.953Z,16.92
2023-10-02T07:23:20.617Z,18.92
2023-10-02T07:25:51.961Z,16.00
2023-10-02T07:28:22.033Z,14.25
2023-10-02T07:30:51.657Z,15.07
2023-10-02T07:33:20.660Z,14.40
2023-10-02T07:35:57.548Z,16.23
2023-10-02T07:38:31.356Z,15.07
2023-10-02T07:41:08.042Z,15.00
2023-10-02T07:43:36.188Z,15.18
2023-10-02T07:46:16.081Z,15.40
2023-10-02T07:48:57.091Z,12.93
2023-10-02T07:51:31.961Z,16.67
2023-10-02T07:54:02.162Z,13.00
2023-10-02T07:56:30.403Z,13.38
2023-10-02T07:59:02.753Z,14.98
2023-10-02T08:01:34.690Z,15.60
2023-10-02T08:04:03.400Z,14.38
2023-10-02T08:06:38.092Z,15.93
2023-10-02T08:09:37.957Z,14.88
2023-10-02T08:12:09.630Z,14.60
2023-10-02T08:14:43.329Z,14.32
2023-10-02T08:17:24.493Z,16.52
2023-10-02T08:19:57.730Z,14.00
2023-10-02T08:22:26.121Z,12.90
2023-10-02T08:25:03.335Z,14.13
2023-10-02T08:27:33.273Z,14.07
2023-10-02T08:30:02.596Z,13.00
2023-10-02T08:32:31.795Z,13.77
2023-10-02T08:35:13.304Z,11.80
2023-10-02T08:37:41.291Z,13.50
2023-10-02T08:40:16.487Z,15.70
2023-10-02T08:42:48.151Z,14.13
2023-10-02T08:45:21.658Z,13.80
2023-10-02T08:47:49.889Z,13.98
2023-10-02T08:50:18.411Z,12.30
2023-10-02T08:52:51.424Z,14.63
2023-10-02T08:55:53.175Z,16.60
2023-10-02T08:58:23.405Z,15.23
2023-10-02T09:01:07.760Z,13.93
2023-10-02T09:03:42.779Z,12.90
2023-10-02T09:06:28.583Z,14.73
2023-10-02T09:09:16.447Z,14.57
2023-10-02T09:11:45.943Z,14.80
2023-10-02T09:14:23.335Z,14.82
2023-10-02T09:17:14.076Z,13.32
2023-10-02T09:19:49.831Z,15.88
2023-10-02T09:22:19.021Z,20.27
2023-10-02T09:24:59.036Z,13.23
2023-10-02T09:27:29.521Z,15.82
2023-10-02T09:30:15.662Z,14.95
2023-10-02T09:33:10.318Z,14.88
2023-10-02T09:36:36.595Z,16.23
2023-10-02T09:38:34.063Z,15.02
2023-10-02T09:41:16.982Z,15.55
2023-10-02T09:43:53.996Z,16.20
2023-10-02T09:46:44.116Z,15.82
2023-10-02T09:49:21.171Z,14.02
2023-10-02T09:52:13.776Z,15.43
2023-10-02T09:55:13.865Z,15.88
2023-10-02T09:57:57.783Z,14.90
2023-10-02T10:00:38.726Z,14.40
2023-10-02T10:03:34.573Z,14.52
2023-10-02T10:06:31.331Z,17.60
2023-10-02T10:09:26.780Z,14.68
2023-10-02T10:12:10.280Z,15.77
2023-10-02T10:14:38.766Z,15.05
2023-10-02T10:17:14.450Z,14.15
2023-10-02T10:19:47.623Z,16.33
2023-10-02T10:22:36.284Z,14.52
2023-10-02T10:25:20.323Z,14.50
2023-10-02T10:28:07.189Z,14.40
2023-10-02T10:31:01.984Z,14.35
2023-10-02T10:33:47.825Z,16.75
2023-10-02T10:36:37.768Z,15.70
2023-10-02T10:39:44.273Z,15.07
2023-10-02T10:42:25.587Z,14.90
2023-10-02T10:44:53.619Z,16.67
2023-10-02T10:47:25.293Z,16.48
2023-10-02T10:50:11.525Z,15.73
2023-10-02T10:52:40.585Z,14.30
2023-10-02T10:55:34.553Z,16.35
2023-10-02T11:00:53.240Z,15.07
2023-10-02T11:03:28.023Z,13.75
2023-10-02T11:06:03.793Z,14.63
2023-10-02T11:08:32.503Z,16.35
2023-10-02T11:11:02.905Z,13.00
2023-10-02T11:13:31.620Z,15.60
2023-10-02T11:16:09.291Z,14.38
2023-10-02T11:22:26.300Z,15.32
2023-10-02T11:25:20.448Z,15.93
2023-10-02T11:27:59.384Z,14.90
2023-10-02T11:30:33.379Z,14.48
2023-10-02T11:33:01.629Z,15.38
2023-10-02T11:35:31.316Z,13.95
2023-10-02T11:38:02.526Z,15.70
2023-10-02T11:40:30.753Z,15.07
2023-10-02T11:43:01.262Z,14.43
2023-10-02T11:45:31.204Z,13.40
2023-10-02T11:48:00.439Z,15.25
2023-10-02T11:50:28.624Z,13.80
2023-10-02T12:03:44.825Z,15.10
2023-10-02T12:07:39.541Z,14.50
2023-10-02T12:13:27.966Z,15.25
2023-10-02T12:16:24.454Z,13.70
2023-10-02T12:18:55.655Z,15.50
2023-10-02T12:21:26.345Z,12.10
2023-10-02T12:23:56.612Z,14.52
2023-10-02T12:32:52.683Z,13.73
2023-10-02T12:35:22.092Z,13.80
2023-10-02T12:37:51.711Z,14.10
2023-10-02T12:40:22.162Z,19.70
2023-10-02T12:42:54.691Z,14.50
2023-10-02T12:45:24.283Z,11.07
2023-10-02T12:47:56.580Z,13.77
2023-10-02T12:50:26.204Z,12.98
2023-10-02T12:52:55.855Z,13.35
2023-10-02T12:55:24.602Z,13.60
2023-10-02T12:57:52.699Z,13.18
2023-10-02T13:00:21.781Z,12.77
2023-10-02T13:02:51.303Z,14.90
2023-10-02T13:05:21.465Z,11.32
2023-10-02T13:07:52.092Z,11.77
2023-10-02T13:10:20.211Z,12.30
2023-10-02T13:12:48.777Z,11.88
2023-10-02T13:15:16.676Z,11.73
2023-10-02T13:17:45.178Z,12.15
2023-10-02T14:07:00.953Z,11.88
2023-10-02T14:09:28.738Z,12.52
2023-10-02T14:11:56.887Z,14.77
2023-10-02T14:14:26.825Z,11.55
2023-10-02T14:16:55.077Z,14.13
2023-10-02T14:19:24.744Z,11.45
2023-10-02T14:21:54.326Z,12.93
2023-10-02T14:24:23.690Z,15.10
2023-10-02T14:26:51.505Z,13.75
2023-10-02T14:29:19.432Z,14.18
2023-10-02T14:31:48.532Z,11.60
2023-10-02T14:34:16.540Z,13.27
2023-10-02T14:36:45.153Z,16.85
2023-10-02T14:39:16.806Z,11.52
2023-10-02T14:41:45.995Z,12.90
2023-10-02T14:44:14.485Z,12.90
2023-10-02T14:46:44.369Z,15.32
2023-10-02T14:49:12.649Z,13.45
2023-10-02T14:51:41.231Z,14.82
2023-10-02T14:54:10.006Z,13.13
2023-10-02T14:56:38.225Z,13.88
2023-10-02T14:59:07.676Z,12.80
2023-10-02T15:01:36.080Z,12.77
2023-10-02T15:04:04.381Z,13.40
2023-10-02T15:06:34.232Z,14.23
2023-10-02T15:09:04.285Z,13.48
2023-10-02T15:11:32.610Z,13.88
2023-10-02T15:14:00.860Z,13.77
2023-10-02T15:16:30.185Z,15.60
2023-10-02T15:18:58.017Z,13.77
2023-10-02T15:21:25.944Z,13.55
2023-10-02T15:23:59.438Z,13.80
2023-10-02T15:26:27.494Z,15.27
2023-10-02T15:28:55.478Z,13.27
2023-10-02T15:31:24.339Z,16.58
2023-10-02T15:33:56.188Z,12.30
2023-10-02T15:36:24.553Z,14.55
2023-10-02T15:38:52.544Z,11.50
2023-10-02T15:41:30.939Z,15.13
2023-10-02T15:44:01.807Z,14.68
2023-10-02T15:46:29.787Z,16.40
2023-10-02T15:48:59.233Z,14.35
2023-10-02T15:51:27.314Z,15.27
2023-10-02T15:53:56.851Z,13.68
2023-10-02T15:56:26.004Z,13.82
2023-10-02T15:58:54.227Z,14.35
2023-10-02T16:01:22.441Z,15.10
2023-10-02T16:03:51.712Z,15.55
2023-10-02T16:06:24.149Z,15.68
2023-10-02T16:08:53.791Z,14.68
2023-10-02T16:11:22.320Z,14.60
2023-10-02T16:13:51.376Z,16.63
2023-10-02T16:16:19.648Z,14.82
2023-10-02T16:18:47.885Z,14.20
2023-10-02T16:21:18.204Z,14.88
2023-10-02T16:23:47.343Z,11.80
2023-10-02T16:26:15.992Z,16.42
2023-10-02T16:28:47.342Z,12.27
2023-10-02T16:31:18.429Z,16.25
2023-10-02T16:33:48.388Z,15.13
2023-10-02T16:36:20.284Z,14.05
2023-10-02T16:39:07.682Z,14.63
2023-10-02T16:41:37.791Z,13.25
2023-10-02T16:44:06.856Z,14.35
2023-10-02T16:46:34.754Z,12.43
2023-10-02T16:49:02.894Z,13.65
2023-10-02T16:51:30.834Z,13.75
2023-10-02T16:54:00.103Z,13.10
2023-10-02T16:56:27.937Z,15.05
2023-10-02T16:58:56.876Z,12.80
2023-10-02T17:01:24.648Z,14.82
2023-10-02T17:03:52.913Z,15.40
2023-10-02T17:06:21.052Z,13.18
2023-10-02T17:08:49.394Z,14.63
2023-10-02T17:11:18.906Z,10.20
2023-10-02T17:13:47.874Z,11.88
2023-10-02T17:16:16.950Z,13.07
2023-10-02T17:18:44.797Z,13.63
2023-10-02T17:21:16.872Z,12.35
2023-10-02T17:23:45.284Z,11.27
2023-10-02T17:26:20.619Z,11.18
2023-10-02T17:59:04.995Z,13.57
2023-10-02T18:10:20.710Z,13.50
2023-10-02T18:14:08.992Z,14.85
2023-10-02T18:23:30.153Z,15.95
2023-10-02T18:26:08.958Z,14.38
2023-10-02T18:28:37.577Z,16.25
2023-10-02T18:32:28.575Z,19.75
2023-10-02T18:50:08.474Z,12.60
2023-10-02T18:55:50.743Z,13.30
2023-10-02T18:59:16.612Z,13.98
2023-10-02T19:09:19.180Z,12.82
2023-10-02T19:11:47.815Z,12.95
2023-10-02T19:14:39.400Z,14.35
2023-10-02T19:17:07.369Z,13.48
2023-10-02T19:19:35.384Z,14.10
2023-10-02T19:22:03.594Z,13.05
2023-10-02T19:24:33.270Z,13.07
2023-10-02T19:27:01.053Z,19.77
2023-10-02T19:29:31.039Z,13.05
2023-10-02T19:31:58.922Z,13.88
2023-10-02T19:34:27.027Z,13.85
2023-10-02T19:36:55.076Z,13.70
2023-10-02T19:39:22.962Z,14.82
2023-10-02T19:41:53.335Z,14.73
2023-10-02T19:44:21.077Z,17.15
2023-10-02T19:46:49.513Z,13.70
2023-10-02T19:49:17.567Z,12.75
2023-10-02T19:51:46.157Z,13.75
2023-10-02T19:54:14.047Z,13.35
2023-10-02T19:56:43.411Z,13.90
2023-10-02T19:59:13.992Z,14.10
2023-10-02T20:01:43.535Z,13.68
2023-10-02T20:04:11.442Z,13.82
2023-10-02T20:06:39.433Z,13.55
2023-10-02T20:09:07.713Z,15.70
2023-10-02T20:11:35.736Z,12.88
2023-10-02T20:14:06.150Z,14.45
2023-10-02T20:16:44.621Z,16.17
2023-10-02T20:19:15.423Z,13.30
2023-10-02T20:21:45.825Z,12.23
2023-10-02T20:24:45.908Z,15.57
2023-10-02T20:27:21.960Z,12.98
2023-10-02T20:31:16.873Z,13.75
2023-10-02T20:33:34.945Z,15.18
2023-10-02T20:37:01.497Z,16.17
2023-10-02T20:39:56.302Z,16.70
2023-10-02T20:45:54.219Z,20.30
2023-10-02T20:51:37.446Z,19.10
2023-10-02T20:55:18.940Z,18.10
2023-10-02T20:57:26.488Z,16.35
2023-10-02T21:00:02.577Z,17.27
2023-10-02T21:03:33.180Z,18.13
2023-10-02T21:06:24.751Z,19.35
2023-10-02T21:09:03.510Z,16.75
2023-10-02T21:11:41.758Z,20.23
2023-10-02T21:14:12.510Z,18.45
2023-10-02T21:16:43.671Z,19.90
2023-10-02T21:19:25.655Z,19.33
2023-10-02T21:21:56.010Z,19.17
2023-10-02T21:24:42.095Z,17.55
2023-10-02T21:27:19.710Z,18.05
2023-10-02T21:30:20.241Z,19.73
2023-10-02T21:32:51.042Z,18.60
2023-10-02T21:35:38.712Z,20.77
2023-10-02T21:38:23.933Z,19.02
2023-10-02T21:40:54.034Z,21.48
2023-10-02T21:43:32.295Z,21.77
2023-10-02T21:46:17.198Z,19.45
2023-10-02T21:49:30.453Z,21.80
2023-10-02T21:52:17.640Z,20.80
2023-10-02T21:54:58.723Z,20.08
2023-10-02T21:57:41.478Z,22.02
2023-10-02T22:00:36.946Z,21.67
2023-10-02T22:03:33.404Z,20.00
2023-10-02T22:06:20.976Z,21.88
2023-10-02T22:09:06.755Z,21.25
2023-10-02T22:11:42.296Z,20.70
2023-10-02T22:14:28.433Z,20.33
2023-10-02T22:17:17.561Z,23.27
2023-10-02T22:20:00.433Z,23.08
2023-10-02T22:22:56.274Z,20.75
2023-10-02T22:25:24.746Z,19.42
2023-10-02T22:27:52.802Z,20.30
2023-10-02T22:30:22.939Z,20.55
2023-10-02T22:32:51.568Z,20.85
2023-10-02T22:35:22.394Z,21.58
2023-10-02T22:37:51.278Z,23.45
2023-10-02T22:40:22.445Z,20.10
2023-10-02T22:42:56.735Z,21.90
2023-10-02T22:45:27.037Z,21.73
2023-10-02T22:47:56.666Z,20.67
2023-10-02T22:50:25.908Z,19.02
2023-10-02T22:52:53.784Z,20.08
2023-10-02T22:55:23.240Z,20.88
2023-10-02T22:57:52.252Z,19.77
2023-10-02T23:00:23.493Z,21.52
2023-10-02T23:02:59.531Z,23.85
2023-10-02T23:05:30.172Z,24.98
2023-10-02T23:07:58.639Z,22.55
2023-10-02T23:10:26.935Z,21.73
2023-10-02T23:13:20.153Z,23.00
2023-10-02T23:20:09.762Z,19.65
2023-10-02T23:23:18.866Z,18.27
2023-10-02T23:25:57.851Z,22.40
2023-10-02T23:29:17.816Z,21.63
2023-10-02T23:31:46.044Z,22.58
2023-10-02T23:35:27.170Z,23.50
2023-10-02T23:38:09.247Z,20.05
2023-10-02T23:41:26.408Z,19.27
2023-10-02T23:44:18.849Z,19.10
2023-10-02T23:47:01.413Z,23.05
2023-10-02T23:49:36.862Z,23.52
2023-10-02T23:52:17.239Z,18.35
2023-10-02T23:55:00.647Z,19.90
2023-10-02T23:57:33.618Z,20.45
